createdAt,value
2023-03-06T00:01:08.634Z,3.12
2023-03-06T00:03:36.616Z,3.11
2023-03-06T00:06:04.276Z,3.27
2023-03-06T00:08:31.912Z,3.18
2023-03-06T00:11:00.188Z,3.17
2023-03-06T00:13:27.909Z,3.23
2023-03-06T00:15:59.086Z,3.21
2023-03-06T00:18:27.134Z,3.23
2023-03-06T00:20:54.904Z,3.13
2023-03-06T00:23:22.865Z,3.15
2023-03-06T00:25:50.934Z,3.13
2023-03-06T00:28:18.482Z,3.18
2023-03-06T00:30:46.449Z,3.20
2023-03-06T00:33:14.381Z,3.03
2023-03-06T00:35:42.342Z,3.06
2023-03-06T00:38:14.270Z,3.08
2023-03-06T00:40:42.248Z,3.18
2023-03-06T00:43:10.083Z,3.23
2023-03-06T00:45:41.734Z,3.32
2023-03-06T00:48:10.201Z,3.22
2023-03-06T00:50:37.829Z,3.19
2023-03-06T00:53:05.429Z,3.05
2023-03-06T00:55:33.622Z,2.96
2023-03-06T00:58:01.598Z,3.10
2023-03-06T01:00:29.846Z,3.13
2023-03-06T01:02:57.873Z,3.00
2023-03-06T01:05:25.683Z,3.15
2023-03-06T01:07:53.837Z,3.22
2023-03-06T01:10:21.845Z,3.34
2023-03-06T01:12:49.579Z,3.49
2023-03-06T01:15:19.073Z,3.29
2023-03-06T01:17:47.602Z,3.48
2023-03-06T01:20:17.083Z,3.50
2023-03-06T01:22:44.922Z,3.55
2023-03-06T01:25:12.986Z,3.41
2023-03-06T01:27:40.617Z,3.47
2023-03-06T01:30:12.014Z,3.41
2023-03-06T01:32:40.051Z,3.24
2023-03-06T01:35:08.421Z,3.11
2023-03-06T01:37:37.090Z,3.11
2023-03-06T01:40:05.493Z,3.14
2023-03-06T01:42:33.343Z,3.35
2023-03-06T01:45:06.519Z,3.26
2023-03-06T01:47:35.512Z,3.32
2023-03-06T01:50:04.815Z,3.40
2023-03-06T01:52:44.465Z,3.57
2023-03-06T01:55:16.674Z,3.61
2023-03-06T01:57:45.642Z,3.56
2023-03-06T02:00:16.914Z,3.55
2023-03-06T02:02:51.644Z,3.44
2023-03-06T02:05:19.897Z,3.51
2023-03-06T02:07:50.337Z,3.46
2023-03-06T02:10:20.618Z,3.16
2023-03-06T02:12:49.518Z,3.06
2023-03-06T02:15:19.808Z,3.32
2023-03-06T02:17:49.103Z,3.43
2023-03-06T02:20:29.320Z,3.39
2023-03-06T02:23:01.434Z,3.43
2023-03-06T02:25:41.276Z,3.49
2023-03-06T02:28:12.683Z,3.35
2023-03-06T02:30:41.512Z,3.33
2023-03-06T02:33:21.106Z,3.44
2023-03-06T02:35:59.731Z,3.49
2023-03-06T02:38:30.073Z,3.44
2023-03-06T02:40:57.855Z,3.24
2023-03-06T02:43:29.926Z,3.31
2023-03-06T02:45:57.866Z,3.50
2023-03-06T02:48:25.419Z,3.40
2023-03-06T02:50:53.188Z,3.42
2023-03-06T02:53:21.228Z,3.50
2023-03-06T02:55:49.990Z,3.49
2023-03-06T02:58:17.921Z,3.50
2023-03-06T03:00:47.524Z,3.47
2023-03-06T03:03:15.430Z,3.41
2023-03-06T03:05:43.354Z,3.49
2023-03-06T03:08:11.890Z,3.53
2023-03-06T03:10:39.685Z,3.58
2023-03-06T03:13:07.641Z,3.48
2023-03-06T03:15:36.061Z,3.52
2023-03-06T03:18:04.131Z,3.58
2023-03-06T03:20:32.232Z,3.46
2023-03-06T03:23:00.416Z,3.52
2023-03-06T03:25:28.212Z,3.40
2023-03-06T03:27:56.322Z,3.55
2023-03-06T03:30:24.265Z,3.44
2023-03-06T03:32:51.971Z,3.48
2023-03-06T03:35:20.335Z,3.51
2023-03-06T03:37:48.368Z,3.41
2023-03-06T03:40:16.482Z,3.45
2023-03-06T03:42:44.275Z,3.46
2023-03-06T03:45:13.212Z,3.50
2023-03-06T03:47:41.485Z,3.53
2023-03-06T03:50:10.280Z,3.48
2023-03-06T03:52:38.398Z,3.51
2023-03-06T03:55:06.813Z,3.62
2023-03-06T03:57:34.641Z,3.64
2023-03-06T04:00:02.957Z,3.58
2023-03-06T04:02:41.771Z,3.66
2023-03-06T04:05:11.819Z,3.61
2023-03-06T04:07:39.518Z,3.52
2023-03-06T04:10:12.181Z,3.68
2023-03-06T04:12:40.729Z,3.70
2023-03-06T04:15:10.784Z,3.72
2023-03-06T04:17:38.835Z,3.69
2023-03-06T04:20:07.776Z,3.77
2023-03-06T04:22:35.665Z,3.74
2023-03-06T04:25:03.739Z,3.78
2023-03-06T04:27:31.734Z,3.86
2023-03-06T04:29:59.687Z,3.78
2023-03-06T04:32:27.533Z,3.92
2023-03-06T04:34:55.704Z,3.97
2023-03-06T04:37:25.765Z,3.90
2023-03-06T04:39:54.166Z,3.81
2023-03-06T04:42:22.025Z,3.80
2023-03-06T04:44:49.618Z,4.07
2023-03-06T04:47:19.138Z,4.09
2023-03-06T04:49:47.539Z,3.99
2023-03-06T04:52:15.276Z,4.00
2023-03-06T04:54:42.930Z,4.08
2023-03-06T04:57:10.832Z,4.10
2023-03-06T04:59:39.301Z,4.13
2023-03-06T05:02:07.416Z,4.11
2023-03-06T05:04:35.556Z,3.97
2023-03-06T05:07:03.619Z,4.19
2023-03-06T05:09:31.314Z,4.16
2023-03-06T05:11:59.164Z,4.24
2023-03-06T05:14:29.624Z,4.20
2023-03-06T05:16:57.264Z,4.09
2023-03-06T05:19:25.247Z,4.04
2023-03-06T05:21:52.848Z,4.12
2023-03-06T05:24:20.523Z,4.10
2023-03-06T05:26:48.579Z,4.09
2023-03-06T05:29:16.760Z,4.01
2023-03-06T05:31:44.714Z,3.87
2023-03-06T05:34:16.412Z,3.81
2023-03-06T05:36:44.380Z,4.02
2023-03-06T05:39:12.714Z,4.04
2023-03-06T05:41:40.980Z,4.13
2023-03-06T05:44:08.608Z,4.11
2023-03-06T05:46:36.652Z,4.07
2023-03-06T05:49:04.436Z,4.13
2023-03-06T05:51:32.743Z,4.12
2023-03-06T05:54:00.817Z,4.07
2023-03-06T05:56:28.437Z,4.10
2023-03-06T05:58:56.148Z,4.05
2023-03-06T06:01:24.039Z,4.09
2023-03-06T06:03:52.078Z,4.11
2023-03-06T06:06:19.782Z,4.08
2023-03-06T06:08:47.584Z,3.94
2023-03-06T06:11:15.833Z,4.09
2023-03-06T06:13:43.480Z,4.13
2023-03-06T06:16:13.105Z,4.15
2023-03-06T06:18:41.619Z,4.16
2023-03-06T06:21:11.220Z,4.22
2023-03-06T06:23:38.965Z,4.30
2023-03-06T06:26:08.536Z,4.16
2023-03-06T06:28:36.618Z,4.22
2023-03-06T06:31:11.727Z,4.27
2023-03-06T06:33:40.781Z,4.19
2023-03-06T06:36:16.793Z,4.26
2023-03-06T06:38:44.769Z,4.18
2023-03-06T06:41:38.849Z,4.23
2023-03-06T06:44:00.595Z,4.29
2023-03-06T06:47:14.372Z,4.25
2023-03-06T06:49:17.558Z,4.31
2023-03-06T06:51:45.339Z,4.40
2023-03-06T06:54:13.099Z,4.49
2023-03-06T06:56:40.956Z,4.55
2023-03-06T06:59:16.399Z,4.62
2023-03-06T07:01:45.189Z,4.74
2023-03-06T07:04:13.871Z,4.63
2023-03-06T07:06:42.241Z,4.43
2023-03-06T07:09:10.336Z,4.56
2023-03-06T07:11:39.150Z,4.60
2023-03-06T07:14:06.875Z,4.58
2023-03-06T07:16:34.905Z,4.43
2023-03-06T07:19:03.061Z,4.90
2023-03-06T07:21:30.950Z,4.92
2023-03-06T07:24:00.616Z,5.06
2023-03-06T07:26:28.669Z,4.78
2023-03-06T07:28:56.557Z,4.71
2023-03-06T07:31:26.287Z,4.79
2023-03-06T07:33:54.779Z,4.68
2023-03-06T07:36:23.621Z,4.55
2023-03-06T07:38:51.500Z,4.71
2023-03-06T07:41:21.962Z,4.88
2023-03-06T07:43:50.411Z,4.65
2023-03-06T07:46:18.512Z,4.86
2023-03-06T07:48:46.195Z,5.02
2023-03-06T07:51:17.041Z,4.99
2023-03-06T07:53:45.457Z,5.12
2023-03-06T07:56:13.470Z,4.69
2023-03-06T07:58:43.434Z,4.89
2023-03-06T08:01:14.091Z,5.02
2023-03-06T08:03:42.652Z,4.96
2023-03-06T08:06:11.644Z,5.36
2023-03-06T08:08:41.380Z,5.47
2023-03-06T08:11:10.725Z,5.31
2023-03-06T08:13:39.266Z,5.64
2023-03-06T08:16:07.848Z,5.59
2023-03-06T08:18:36.315Z,5.59
2023-03-06T08:21:12.482Z,5.67
2023-03-06T08:23:40.796Z,5.34
2023-03-06T08:26:13.571Z,5.45
2023-03-06T08:28:41.602Z,5.68
2023-03-06T08:31:20.864Z,5.63
2023-03-06T08:33:48.935Z,5.69
2023-03-06T08:36:16.770Z,5.78
2023-03-06T08:38:44.637Z,5.73
2023-03-06T08:41:13.102Z,5.57
2023-03-06T08:43:40.800Z,5.33
2023-03-06T08:46:09.975Z,5.64
2023-03-06T08:48:38.493Z,5.85
2023-03-06T08:51:06.225Z,5.81
2023-03-06T08:53:43.015Z,5.94
2023-03-06T08:56:16.815Z,6.13
2023-03-06T08:58:44.901Z,6.48
2023-03-06T09:01:18.979Z,6.06
2023-03-06T09:03:46.767Z,6.14
2023-03-06T09:06:15.531Z,6.18
2023-03-06T09:08:43.280Z,6.26
2023-03-06T09:11:12.631Z,6.36
2023-03-06T09:13:41.812Z,6.33
2023-03-06T09:16:10.342Z,6.56
2023-03-06T09:18:38.173Z,6.58
2023-03-06T09:21:06.861Z,6.84
2023-03-06T09:23:35.740Z,7.21
2023-03-06T09:26:04.355Z,7.34
2023-03-06T09:28:35.799Z,7.42
2023-03-06T09:31:08.457Z,7.73
2023-03-06T09:33:36.577Z,7.76
2023-03-06T09:36:05.146Z,7.47
2023-03-06T09:38:33.305Z,7.55
2023-03-06T09:41:19.466Z,7.86
2023-03-06T09:43:50.419Z,8.18
2023-03-06T09:46:36.620Z,8.26
2023-03-06T09:49:23.282Z,8.12
2023-03-06T09:52:18.867Z,8.26
2023-03-06T09:54:50.550Z,8.11
2023-03-06T09:57:23.874Z,8.42
2023-03-06T09:59:57.198Z,8.59
2023-03-06T10:02:41.597Z,8.49
2023-03-06T10:05:18.054Z,8.48
2023-03-06T10:07:51.114Z,8.89
2023-03-06T10:10:24.534Z,8.56
2023-03-06T10:13:29.434Z,8.20
2023-03-06T10:16:10.306Z,8.12
2023-03-06T10:18:38.720Z,7.49
2023-03-06T10:21:20.653Z,7.88
2023-03-06T10:23:58.706Z,7.23
2023-03-06T10:26:54.123Z,8.11
2023-03-06T10:30:02.277Z,7.97
2023-03-06T10:32:48.680Z,8.51
2023-03-06T10:35:22.822Z,8.66
2023-03-06T10:37:50.842Z,8.25
2023-03-06T10:40:21.388Z,8.37
2023-03-06T10:42:56.075Z,8.46
2023-03-06T10:45:35.198Z,8.50
2023-03-06T10:48:11.810Z,8.31
2023-03-06T10:50:39.754Z,8.45
2023-03-06T10:53:26.075Z,8.46
2023-03-06T10:55:56.609Z,8.51
2023-03-06T10:58:27.097Z,8.40
2023-03-06T11:01:21.777Z,7.95
2023-03-06T11:03:49.528Z,7.79
2023-03-06T11:06:34.385Z,7.91
2023-03-06T11:09:24.251Z,7.84
2023-03-06T11:11:52.755Z,7.67
2023-03-06T11:14:21.649Z,8.42
2023-03-06T11:16:51.055Z,8.67
2023-03-06T11:19:24.920Z,8.81
2023-03-06T11:22:03.181Z,8.86
2023-03-06T11:24:36.624Z,8.29
2023-03-06T11:27:29.420Z,8.17
2023-03-06T11:29:59.995Z,7.67
2023-03-06T11:32:29.757Z,8.49
2023-03-06T11:35:01.941Z,8.24
2023-03-06T11:37:32.610Z,8.52
2023-03-06T11:40:06.781Z,8.50
2023-03-06T11:42:41.989Z,8.47
2023-03-06T11:45:31.062Z,8.83
2023-03-06T11:48:12.619Z,8.72
2023-03-06T11:50:46.016Z,8.55
2023-03-06T11:53:19.271Z,8.79
2023-03-06T11:56:05.816Z,9.01
2023-03-06T11:58:39.721Z,8.77
2023-03-06T12:01:13.128Z,9.09
2023-03-06T12:03:50.423Z,9.12
2023-03-06T12:06:35.648Z,9.13
2023-03-06T12:09:14.148Z,9.21
2023-03-06T12:11:51.184Z,9.49
2023-03-06T12:14:37.854Z,9.38
2023-03-06T12:17:30.488Z,9.50
2023-03-06T12:20:19.636Z,9.58
2023-03-06T12:22:57.975Z,9.32
2023-03-06T12:25:36.612Z,9.01
2023-03-06T12:28:16.993Z,8.59
2023-03-06T12:31:03.748Z,8.84
2023-03-06T12:33:37.116Z,8.74
2023-03-06T12:36:38.531Z,8.87
2023-03-06T12:39:15.175Z,8.97
2023-03-06T12:41:46.357Z,9.21
2023-03-06T12:44:32.610Z,8.88
2023-03-06T12:47:12.188Z,8.99
2023-03-06T12:49:46.054Z,8.98
2023-03-06T12:52:29.986Z,8.79
2023-03-06T12:55:04.961Z,9.01
2023-03-06T12:57:33.217Z,8.95
2023-03-06T13:00:01.220Z,8.81
2023-03-06T13:02:31.733Z,8.99
2023-03-06T13:04:59.780Z,8.85
2023-03-06T13:07:27.383Z,9.10
2023-03-06T13:10:01.002Z,8.77
2023-03-06T13:12:55.189Z,8.83
2023-03-06T13:15:39.869Z,8.75
2023-03-06T13:18:23.055Z,8.58
2023-03-06T13:20:55.201Z,8.48
2023-03-06T13:23:29.636Z,8.68
2023-03-06T13:25:58.300Z,8.51
2023-03-06T13:28:47.764Z,8.38
2023-03-06T13:31:28.301Z,8.69
2023-03-06T13:34:31.242Z,8.47
2023-03-06T13:37:13.827Z,8.30
2023-03-06T13:39:56.928Z,8.49
2023-03-06T13:42:38.048Z,8.69
2023-03-06T13:45:13.956Z,8.57
2023-03-06T13:50:46.310Z,8.87
2023-03-06T13:53:38.683Z,8.86
2023-03-06T13:56:26.182Z,9.03
2023-03-06T13:59:15.532Z,9.05
2023-03-06T14:02:05.058Z,9.14
2023-03-06T14:04:57.919Z,9.07
2023-03-06T14:07:43.507Z,8.60
2023-03-06T14:10:14.312Z,8.62
2023-03-06T14:12:50.931Z,8.96
2023-03-06T14:15:20.298Z,8.88
2023-03-06T14:17:53.019Z,8.67
2023-03-06T14:20:33.604Z,8.70
2023-03-06T14:23:21.690Z,9.04
2023-03-06T14:25:58.329Z,8.97
2023-03-06T14:28:28.326Z,8.92
2023-03-06T14:30:57.988Z,9.08
2023-03-06T14:33:58.544Z,8.83
2023-03-06T14:36:44.147Z,8.71
2023-03-06T14:39:22.504Z,8.78
2023-03-06T14:42:26.533Z,9.13
2023-03-06T14:45:05.948Z,8.93
2023-03-06T14:47:36.465Z,8.90
2023-03-06T14:50:21.244Z,8.86
2023-03-06T14:53:16.541Z,8.69
2023-03-06T14:55:56.236Z,8.57
2023-03-06T14:58:39.454Z,8.47
2023-03-06T15:01:09.662Z,8.24
2023-03-06T15:03:50.455Z,8.38
2023-03-06T15:06:21.909Z,8.25
2023-03-06T15:09:00.919Z,8.34
2023-03-06T15:12:01.422Z,8.37
2023-03-06T15:14:33.791Z,8.39
2023-03-06T15:17:18.572Z,8.15
2023-03-06T15:19:49.739Z,8.30
2023-03-06T15:22:29.647Z,8.28
2023-03-06T15:25:13.124Z,8.07
2023-03-06T15:27:41.099Z,8.27
2023-03-06T15:30:23.747Z,8.04
2023-03-06T15:32:51.731Z,8.08
2023-03-06T15:35:29.548Z,8.18
2023-03-06T15:37:57.902Z,7.93
2023-03-06T15:40:27.979Z,7.87
2023-03-06T15:42:56.334Z,7.76
2023-03-06T15:45:26.087Z,7.78
2023-03-06T15:47:55.601Z,7.62
2023-03-06T15:50:28.417Z,7.51
2023-03-06T15:52:56.414Z,7.46
2023-03-06T15:55:25.102Z,7.49
2023-03-06T15:57:58.232Z,7.57
2023-03-06T16:00:28.631Z,7.62
2023-03-06T16:02:57.241Z,7.45
2023-03-06T16:05:25.753Z,7.44
2023-03-06T16:07:53.660Z,7.23
2023-03-06T16:10:24.483Z,7.30
2023-03-06T16:13:16.563Z,7.18
2023-03-06T16:15:49.669Z,7.12
2023-03-06T16:18:17.882Z,7.12
2023-03-06T16:20:46.171Z,7.09
2023-03-06T16:23:13.883Z,6.88
2023-03-06T16:25:43.778Z,6.84
2023-03-06T16:28:13.246Z,6.78
2023-03-06T16:30:43.138Z,6.69
2023-03-06T16:33:12.445Z,6.65
2023-03-06T16:35:40.416Z,6.78
2023-03-06T16:38:09.785Z,6.70
2023-03-06T16:40:38.644Z,6.61
2023-03-06T16:43:07.575Z,6.53
2023-03-06T16:45:37.394Z,6.61
2023-03-06T16:48:06.015Z,6.35
2023-03-06T16:50:37.888Z,6.27
2023-03-06T16:53:06.843Z,6.27
2023-03-06T16:55:34.576Z,6.01
2023-03-06T16:58:02.553Z,6.07
2023-03-06T17:00:31.347Z,6.04
2023-03-06T17:03:00.479Z,5.98
2023-03-06T17:05:28.804Z,5.98
2023-03-06T17:07:56.983Z,5.99
2023-03-06T17:10:24.609Z,5.90
2023-03-06T17:12:55.668Z,5.88
2023-03-06T17:15:23.739Z,5.98
2023-03-06T17:17:51.416Z,6.05
2023-03-06T17:20:19.997Z,5.89
2023-03-06T17:22:47.966Z,5.84
2023-03-06T17:25:15.863Z,5.88
2023-03-06T17:27:43.571Z,6.02
2023-03-06T17:30:12.307Z,5.86
2023-03-06T17:32:40.074Z,5.93
2023-03-06T17:35:09.235Z,5.85
2023-03-06T17:37:37.211Z,5.80
2023-03-06T17:40:08.190Z,5.98
2023-03-06T17:42:35.989Z,5.84
2023-03-06T17:45:05.117Z,5.86
2023-03-06T17:47:32.971Z,5.79
2023-03-06T17:50:00.994Z,5.73
2023-03-06T17:52:29.594Z,5.69
2023-03-06T17:54:57.523Z,5.60
2023-03-06T17:57:25.379Z,5.49
2023-03-06T17:59:53.402Z,5.58
2023-03-06T18:02:21.289Z,5.45
2023-03-06T18:04:50.315Z,5.52
2023-03-06T18:07:18.313Z,5.28
2023-03-06T18:09:46.219Z,5.45
2023-03-06T18:12:14.609Z,5.26
2023-03-06T18:14:42.593Z,5.27
2023-03-06T18:17:10.177Z,5.11
2023-03-06T18:19:38.502Z,5.30
2023-03-06T18:22:06.113Z,5.23
2023-03-06T18:24:34.178Z,5.30
2023-03-06T18:27:02.858Z,5.17
2023-03-06T18:29:31.102Z,5.25
2023-03-06T18:31:59.066Z,5.10
2023-03-06T18:34:27.430Z,5.10
2023-03-06T18:36:55.335Z,5.13
2023-03-06T18:39:23.374Z,5.09
2023-03-06T18:41:51.627Z,5.27
2023-03-06T18:44:19.521Z,5.25
2023-03-06T18:46:47.420Z,5.27
2023-03-06T18:49:15.506Z,5.19
2023-03-06T18:51:43.410Z,5.22
2023-03-06T18:54:11.444Z,5.13
2023-03-06T18:56:39.633Z,5.18
2023-03-06T18:59:08.425Z,5.09
2023-03-06T19:01:36.625Z,5.00
2023-03-06T19:04:05.608Z,5.12
2023-03-06T19:06:33.561Z,5.13
2023-03-06T19:09:01.946Z,5.29
2023-03-06T19:11:31.636Z,5.35
2023-03-06T19:13:59.290Z,5.17
2023-03-06T19:16:28.922Z,5.20
2023-03-06T19:18:58.908Z,5.05
2023-03-06T19:21:28.234Z,5.30
2023-03-06T19:23:56.474Z,5.16
2023-03-06T19:26:25.644Z,5.08
2023-03-06T19:28:53.807Z,5.25
2023-03-06T19:31:26.856Z,5.25
2023-03-06T19:33:56.220Z,5.18
2023-03-06T19:36:28.808Z,5.29
2023-03-06T19:38:59.126Z,5.59
2023-03-06T19:41:27.513Z,5.40
2023-03-06T19:43:58.850Z,5.20
2023-03-06T19:46:27.111Z,5.14
2023-03-06T19:48:56.286Z,5.43
2023-03-06T19:51:25.099Z,5.06
2023-03-06T19:53:54.098Z,5.11
2023-03-06T19:56:27.948Z,5.40
2023-03-06T19:58:56.349Z,5.36
2023-03-06T20:01:26.164Z,5.18
2023-03-06T20:03:58.333Z,5.52
2023-03-06T20:06:27.886Z,5.60
2023-03-06T20:08:56.751Z,5.44
2023-03-06T20:11:28.682Z,5.08
2023-03-06T20:13:58.523Z,5.06
2023-03-06T20:16:27.079Z,5.37
2023-03-06T20:18:56.813Z,5.59
2023-03-06T20:21:29.444Z,5.36
2023-03-06T20:23:57.617Z,5.16
2023-03-06T20:26:27.258Z,5.24
2023-03-06T20:28:55.519Z,5.22
2023-03-06T20:31:26.196Z,5.20
2023-03-06T20:33:55.323Z,5.24
2023-03-06T20:36:34.199Z,5.28
2023-03-06T20:39:12.638Z,5.28
2023-03-06T20:41:41.125Z,5.28
2023-03-06T20:44:13.561Z,5.27
2023-03-06T20:46:41.981Z,5.18
2023-03-06T20:49:11.687Z,5.10
2023-03-06T20:51:40.363Z,5.17
2023-03-06T20:54:10.453Z,5.22
2023-03-06T20:56:39.358Z,5.07
2023-03-06T20:59:13.859Z,5.02
2023-03-06T21:01:45.489Z,4.96
2023-03-06T21:04:14.367Z,5.05
2023-03-06T21:06:43.788Z,4.91
2023-03-06T21:09:12.665Z,5.07
2023-03-06T21:11:40.678Z,5.00
2023-03-06T21:14:08.697Z,5.07
2023-03-06T21:16:36.744Z,4.87
2023-03-06T21:19:05.089Z,4.90
2023-03-06T21:21:34.763Z,4.98
2023-03-06T21:24:06.241Z,4.88
2023-03-06T21:26:34.520Z,4.71
2023-03-06T21:29:03.165Z,4.75
2023-03-06T21:31:31.202Z,4.91
2023-03-06T21:33:59.411Z,5.08
2023-03-06T21:36:27.739Z,5.02
2023-03-06T21:38:55.638Z,4.76
2023-03-06T21:41:26.366Z,4.82
2023-03-06T21:44:01.948Z,4.99
2023-03-06T21:46:30.450Z,5.00
2023-03-06T21:48:58.666Z,5.03
2023-03-06T21:51:26.767Z,4.88
2023-03-06T21:53:55.145Z,5.09
2023-03-06T21:56:24.733Z,5.17
2023-03-06T21:58:52.460Z,4.99
2023-03-06T22:01:23.842Z,4.77
2023-03-06T22:03:51.984Z,4.63
2023-03-06T22:06:22.147Z,4.56
2023-03-06T22:08:49.784Z,4.62
2023-03-06T22:11:19.585Z,4.54
2023-03-06T22:13:47.576Z,4.39
2023-03-06T22:16:15.970Z,4.10
2023-03-06T22:18:51.780Z,4.61
2023-03-06T22:21:21.368Z,4.40
2023-03-06T22:23:54.179Z,4.39
2023-03-06T22:26:21.815Z,4.30
2023-03-06T22:28:50.007Z,4.09
2023-03-06T22:31:20.615Z,4.20
2023-03-06T22:33:50.586Z,4.07
2023-03-06T22:36:19.073Z,3.88
2023-03-06T22:38:47.853Z,3.80
2023-03-06T22:41:17.171Z,4.04
2023-03-06T22:43:45.235Z,3.92
2023-03-06T22:46:14.945Z,3.97
2023-03-06T22:48:42.912Z,3.80
2023-03-06T22:51:13.355Z,3.82
2023-03-06T22:53:41.212Z,3.90
2023-03-06T22:56:11.324Z,3.88
2023-03-06T22:58:39.759Z,3.82
2023-03-06T23:01:08.514Z,3.89
2023-03-06T23:03:37.201Z,3.89
2023-03-06T23:06:13.338Z,3.89
2023-03-06T23:08:42.037Z,3.94
2023-03-06T23:11:15.478Z,4.06
2023-03-06T23:14:02.310Z,4.03
2023-03-06T23:16:48.374Z,4.29
2023-03-06T23:19:34.388Z,4.25
2023-03-06T23:22:20.453Z,4.13
2023-03-06T23:25:06.896Z,4.03
2023-03-06T23:27:35.857Z,4.20
2023-03-06T23:30:05.314Z,4.12
2023-03-06T23:32:33.587Z,4.26
2023-03-06T23:35:02.071Z,4.17
2023-03-06T23:37:31.116Z,4.44
2023-03-06T23:39:59.073Z,4.11
2023-03-06T23:42:26.929Z,4.28
2023-03-06T23:44:55.132Z,4.13
2023-03-06T23:47:23.154Z,4.03
2023-03-06T23:49:51.054Z,3.94
2023-03-06T23:52:18.791Z,3.95
2023-03-06T23:54:48.423Z,3.96
2023-03-06T23:57:16.449Z,3.86
2023-03-06T23:59:44.402Z,3.90
